KPIH/PIH METAR and TAF weather

Enter ICAO airport designator
Station Type Date Time Source
KPIH METAR 2021/10/20 06:53 UTC NOAA

KPIH 200653Z AUTO 10009KT 10SM SCT085 07/03 A3014 RMK AO2 SLP199 T00670028 401330028


Station Type Date Time Source
KPIH Decoded METAR 2021/10/20 06:53 UTC NOAA

POCATELLO REGIONAL AIRPORT, ID, United States (KPIH) 42-55N 112-36W 1359M
Oct 20, 2021 - 02:53 AM EDT / 2021.10.20 0653 UTC
Wind: from the E (100 degrees) at 10 MPH (9 KT):0
Visibility: 10 mile(s):0
Sky conditions: partly cloudy
Temperature: 44.1 F (6.7 C)
Dew Point: 37.0 F (2.8 C)
Relative Humidity: 76%
Pressure (altimeter): 30.14 in. Hg (1020 hPa)
ob: KPIH 200653Z AUTO 10009KT 10SM SCT085 07/03 A3014 RMK AO2 SLP199 T00670028 401330028
cycle: 7

Station Type Date Time Source
KPIH TAF 2021/10/20 06:22 UTC NOAA

TAF KPIH 200520Z 2006/2106 VRB05KT P6SM SCT200
FM201800 20010KT P6SM SCT150
FM210200 20007KT P6SM SCT080 BKN130

Example: see airport list